Terminal Aerodrome Forecast
Issued by NWS

Home | Current Version | Previous Version | Text Only | Print | Product List | Glossary On
Versions: 1 2 3 4 5 6 7 8 9 10 11 12 13 14 15 16 17
000
FTUS43 KFGF 281100
TAFTVF
TAF
KTVF 281122Z 2812/2912 VRB05KT P6SM SKC
     FM281500 17013G19KT P6SM SCT120
     FM281800 18020G28KT P6SM BKN120
     FM290700 22017G25KT P6SM -SHRA BKN035
     FM291000 30022G30KT P6SM VCSH OVC015
      AMD LTD TO CLD VIS AND WIND=

USA.gov is the U.S. government's official web portal to all federal, state and local government web resources and services.